createdAt,value
2023-10-27T00:00:49.754Z,66.54
2023-10-27T00:03:17.758Z,66.40
2023-10-27T00:05:45.496Z,65.61
2023-10-27T00:08:14.987Z,66.46
2023-10-27T00:10:42.810Z,65.90
2023-10-27T00:13:10.416Z,66.19
2023-10-27T00:15:38.148Z,66.89
2023-10-27T00:18:06.156Z,66.97
2023-10-27T00:20:33.810Z,66.85
2023-10-27T00:23:01.315Z,67.14
2023-10-27T00:25:29.110Z,65.56
2023-10-27T00:27:56.695Z,64.72
2023-10-27T00:30:24.226Z,66.17
2023-10-27T00:32:52.046Z,66.65
2023-10-27T00:35:19.900Z,66.71
2023-10-27T00:37:47.461Z,66.94
2023-10-27T00:40:15.308Z,66.44
2023-10-27T00:42:43.005Z,66.58
2023-10-27T00:45:10.805Z,66.59
2023-10-27T00:47:38.703Z,66.30
2023-10-27T00:50:06.931Z,66.62
2023-10-27T00:52:34.729Z,66.74
2023-10-27T00:55:02.895Z,65.96
2023-10-27T00:57:30.668Z,66.34
2023-10-27T00:59:59.172Z,66.77
2023-10-27T01:02:27.600Z,66.33
2023-10-27T01:04:55.372Z,66.97
2023-10-27T01:07:25.157Z,66.54
2023-10-27T01:09:53.246Z,66.21
2023-10-27T01:12:20.942Z,66.17
2023-10-27T01:14:48.499Z,66.66
2023-10-27T01:17:16.245Z,67.03
2023-10-27T01:19:44.298Z,67.16
2023-10-27T01:22:16.281Z,66.91
2023-10-27T01:24:44.256Z,66.89
2023-10-27T01:27:11.912Z,67.68
2023-10-27T01:29:39.515Z,68.15
2023-10-27T01:32:07.414Z,68.48
2023-10-27T01:34:35.118Z,69.00
2023-10-27T01:37:02.713Z,69.08
2023-10-27T01:39:30.788Z,69.20
2023-10-27T01:41:58.216Z,71.21
2023-10-27T01:44:25.733Z,69.54
2023-10-27T01:46:53.539Z,69.52
2023-10-27T01:49:21.003Z,68.95
2023-10-27T01:51:48.730Z,69.59
2023-10-27T01:54:16.730Z,69.61
2023-10-27T01:56:44.310Z,69.83
2023-10-27T01:59:11.899Z,70.18
2023-10-27T02:01:40.297Z,69.74
2023-10-27T02:04:08.304Z,70.31
2023-10-27T02:06:35.819Z,70.79
2023-10-27T02:09:03.740Z,70.53
2023-10-27T02:11:31.960Z,70.98
2023-10-27T02:13:59.459Z,71.48
2023-10-27T02:16:27.127Z,71.98
2023-10-27T02:18:54.946Z,72.77
2023-10-27T02:21:22.879Z,73.85
2023-10-27T02:23:50.805Z,72.25
2023-10-27T02:26:18.460Z,72.69
2023-10-27T02:28:46.577Z,73.00
2023-10-27T02:31:14.407Z,73.08
2023-10-27T02:33:42.093Z,72.91
2023-10-27T02:36:10.139Z,72.37
2023-10-27T02:38:38.215Z,72.18
2023-10-27T02:41:10.603Z,72.06
2023-10-27T02:43:42.091Z,71.99
2023-10-27T02:46:13.577Z,71.45
2023-10-27T02:48:43.348Z,71.79
2023-10-27T02:51:13.218Z,72.22
2023-10-27T02:53:41.660Z,72.12
2023-10-27T02:56:10.621Z,72.62
2023-10-27T02:58:38.448Z,71.31
2023-10-27T03:01:11.564Z,73.29
2023-10-27T03:03:40.258Z,72.77
2023-10-27T03:06:08.783Z,72.82
2023-10-27T03:08:36.306Z,71.97
2023-10-27T03:11:04.124Z,70.68
2023-10-27T03:13:33.079Z,72.07
2023-10-27T03:16:01.623Z,71.18
2023-10-27T03:18:29.316Z,72.69
2023-10-27T03:20:58.612Z,71.83
2023-10-27T03:23:29.153Z,72.67
2023-10-27T03:25:57.088Z,72.17
2023-10-27T03:28:24.919Z,71.77
2023-10-27T03:30:52.478Z,73.03
2023-10-27T03:33:20.366Z,72.11
2023-10-27T03:35:48.607Z,70.83
2023-10-27T03:38:16.292Z,71.73
2023-10-27T03:40:44.885Z,72.14
2023-10-27T03:43:12.456Z,73.24
2023-10-27T03:45:40.434Z,73.04
2023-10-27T03:48:08.337Z,73.01
2023-10-27T03:50:36.304Z,72.99
2023-10-27T03:53:04.362Z,73.46
2023-10-27T03:55:32.223Z,73.51
2023-10-27T03:58:20.151Z,72.67
2023-10-27T04:00:50.818Z,72.13
2023-10-27T04:03:18.805Z,72.89
2023-10-27T04:05:46.418Z,71.83
2023-10-27T04:08:14.149Z,72.33
2023-10-27T04:10:42.561Z,72.54
2023-10-27T04:13:10.095Z,70.85
2023-10-27T04:15:37.704Z,70.41
2023-10-27T04:18:05.785Z,73.10
2023-10-27T04:20:33.549Z,71.47
2023-10-27T04:23:01.603Z,71.53
2023-10-27T04:25:29.582Z,71.75
2023-10-27T04:27:57.413Z,71.40
2023-10-27T04:30:26.091Z,72.02
2023-10-27T04:32:54.007Z,71.57
2023-10-27T04:35:21.749Z,73.33
2023-10-27T04:37:49.394Z,72.27
2023-10-27T04:40:17.352Z,73.24
2023-10-27T04:42:48.442Z,73.67
2023-10-27T04:45:17.409Z,73.77
2023-10-27T04:47:45.548Z,73.33
2023-10-27T04:50:13.229Z,73.06
2023-10-27T04:52:40.913Z,74.25
2023-10-27T04:55:11.479Z,73.89
2023-10-27T04:57:40.537Z,74.66
2023-10-27T05:00:09.628Z,74.60
2023-10-27T05:02:37.591Z,74.97
2023-10-27T05:05:05.717Z,72.64
2023-10-27T05:07:38.489Z,75.13
2023-10-27T05:10:09.149Z,74.91
2023-10-27T05:12:37.615Z,74.68
2023-10-27T05:15:06.283Z,74.55
2023-10-27T05:17:36.078Z,75.32
2023-10-27T05:20:06.732Z,74.46
2023-10-27T05:22:34.705Z,74.76
2023-10-27T05:25:06.956Z,71.87
2023-10-27T05:27:34.980Z,73.68
2023-10-27T05:30:03.366Z,73.60
2023-10-27T05:32:34.152Z,75.73
2023-10-27T05:35:02.220Z,74.40
2023-10-27T05:37:30.064Z,72.83
2023-10-27T05:39:57.616Z,74.09
2023-10-27T05:42:25.789Z,75.07
2023-10-27T05:44:53.303Z,75.23
2023-10-27T05:47:20.855Z,74.17
2023-10-27T05:49:49.125Z,75.25
2023-10-27T05:52:17.358Z,75.79
2023-10-27T05:54:47.211Z,75.53
2023-10-27T05:57:16.377Z,75.15
2023-10-27T05:59:44.439Z,74.11
2023-10-27T06:02:15.720Z,74.47
2023-10-27T06:04:44.671Z,74.44
2023-10-27T06:07:16.838Z,74.14
2023-10-27T06:09:45.796Z,76.00
2023-10-27T06:12:13.635Z,76.47
2023-10-27T06:14:45.845Z,75.30
2023-10-27T06:17:14.727Z,76.01
2023-10-27T06:20:16.756Z,75.65
2023-10-27T06:22:46.099Z,76.62
2023-10-27T06:25:13.910Z,75.83
2023-10-27T06:27:41.432Z,75.32
2023-10-27T06:30:09.538Z,76.06
2023-10-27T06:32:37.375Z,75.47
2023-10-27T06:35:05.357Z,77.52
2023-10-27T06:37:33.519Z,77.11
2023-10-27T06:40:02.689Z,76.34
2023-10-27T06:42:32.001Z,74.19
2023-10-27T06:45:01.769Z,74.71
2023-10-27T06:47:29.737Z,75.70
2023-10-27T06:49:57.638Z,75.75
2023-10-27T06:52:25.584Z,75.87
2023-10-27T06:54:53.241Z,75.49
2023-10-27T06:57:20.854Z,74.94
2023-10-27T06:59:48.881Z,74.73
2023-10-27T07:02:16.630Z,74.69
2023-10-27T07:04:44.545Z,74.32
2023-10-27T07:07:25.279Z,74.60
2023-10-27T07:09:55.466Z,75.03
2023-10-27T07:12:23.557Z,74.82
2023-10-27T07:14:51.272Z,74.79
2023-10-27T07:17:18.767Z,73.91
2023-10-27T07:19:46.713Z,74.28
2023-10-27T07:22:14.908Z,75.61
2023-10-27T07:24:42.513Z,74.68
2023-10-27T07:27:10.458Z,75.35
2023-10-27T07:29:37.960Z,75.46
2023-10-27T07:32:06.082Z,74.07
2023-10-27T07:34:34.515Z,74.82
2023-10-27T07:37:05.340Z,75.89
2023-10-27T07:39:33.137Z,75.39
2023-10-27T07:42:01.052Z,76.07
2023-10-27T07:44:28.554Z,74.31
2023-10-27T07:46:56.187Z,75.68
2023-10-27T07:49:24.523Z,77.29
2023-10-27T07:51:52.394Z,76.22
2023-10-27T07:54:19.867Z,75.95
2023-10-27T07:56:47.778Z,74.95
2023-10-27T07:59:15.584Z,75.51
2023-10-27T08:01:43.250Z,75.29
2023-10-27T08:04:11.509Z,74.81
2023-10-27T08:06:39.164Z,75.72
2023-10-27T08:09:07.867Z,76.86
2023-10-27T08:11:35.728Z,75.19
2023-10-27T08:14:05.482Z,74.64
2023-10-27T08:16:33.342Z,74.59
2023-10-27T08:19:02.658Z,75.99
2023-10-27T08:21:30.467Z,75.39
2023-10-27T08:23:58.009Z,76.62
2023-10-27T08:26:25.939Z,76.06
2023-10-27T08:28:53.374Z,74.69
2023-10-27T08:32:03.358Z,76.26
2023-10-27T08:34:31.672Z,74.51
2023-10-27T08:36:59.268Z,76.13
2023-10-27T08:39:27.184Z,75.06
2023-10-27T08:41:55.360Z,76.15
2023-10-27T08:44:25.819Z,74.95
2023-10-27T08:46:55.248Z,74.02
2023-10-27T08:49:23.368Z,74.10
2023-10-27T08:51:50.936Z,75.86
2023-10-27T08:54:19.195Z,76.20
2023-10-27T08:56:47.166Z,74.73
2023-10-27T08:59:15.444Z,74.04
2023-10-27T09:01:44.778Z,74.55
2023-10-27T09:04:14.213Z,74.96
2023-10-27T09:06:43.123Z,74.34
2023-10-27T09:09:13.571Z,74.49
2023-10-27T09:11:43.443Z,73.73
2023-10-27T09:14:18.826Z,74.46
2023-10-27T09:16:47.420Z,75.23
2023-10-27T09:19:22.948Z,74.57
2023-10-27T09:21:50.866Z,73.93
2023-10-27T09:24:25.723Z,74.27
2023-10-27T09:26:54.509Z,74.78
2023-10-27T09:29:22.673Z,75.07
2023-10-27T09:31:51.647Z,73.40
2023-10-27T09:34:27.127Z,74.83
2023-10-27T09:36:57.113Z,74.80
2023-10-27T09:39:25.254Z,74.18
2023-10-27T09:42:04.771Z,73.22
2023-10-27T09:44:53.231Z,73.67
2023-10-27T09:47:46.428Z,72.77
2023-10-27T09:50:15.816Z,72.71
2023-10-27T09:52:48.136Z,74.54
2023-10-27T09:55:18.310Z,76.13
2023-10-27T09:57:46.705Z,73.98
2023-10-27T10:00:17.645Z,73.81
2023-10-27T10:02:45.735Z,75.30
2023-10-27T10:05:13.403Z,73.99
2023-10-27T10:07:44.816Z,75.21
2023-10-27T10:10:19.676Z,73.14
2023-10-27T10:13:02.943Z,73.92
2023-10-27T10:15:32.898Z,73.88
2023-10-27T10:18:01.997Z,73.29
2023-10-27T10:20:45.946Z,73.28
2023-10-27T10:23:13.737Z,74.42
2023-10-27T10:25:54.549Z,73.90
2023-10-27T10:28:28.506Z,72.73
2023-10-27T10:31:08.315Z,72.63
2023-10-27T10:33:40.259Z,71.89
2023-10-27T10:36:19.519Z,72.77
2023-10-27T10:38:58.558Z,73.65
2023-10-27T10:41:54.748Z,74.01
2023-10-27T10:44:22.697Z,73.05
2023-10-27T10:46:51.207Z,71.73
2023-10-27T10:49:28.225Z,71.08
2023-10-27T10:51:59.014Z,70.58
2023-10-27T10:54:34.046Z,71.58
2023-10-27T10:57:09.931Z,71.91
2023-10-27T10:59:38.093Z,70.64
2023-10-27T11:02:07.950Z,72.70
2023-10-27T11:07:06.825Z,73.97
2023-10-27T11:09:34.777Z,71.84
2023-10-27T11:12:04.915Z,73.57
2023-10-27T11:14:42.862Z,73.47
2023-10-27T11:17:12.998Z,73.81
2023-10-27T11:19:54.738Z,74.09
2023-10-27T11:22:24.992Z,72.48
2023-10-27T11:24:53.887Z,72.05
2023-10-27T11:27:26.218Z,71.47
2023-10-27T11:30:02.982Z,72.94
2023-10-27T11:32:32.392Z,72.36
2023-10-27T11:35:00.518Z,72.86
2023-10-27T11:37:30.888Z,73.51
2023-10-27T11:40:12.822Z,73.48
2023-10-27T11:42:40.753Z,73.58
2023-10-27T11:45:08.363Z,73.19
2023-10-27T11:47:57.066Z,73.66
2023-10-27T11:50:25.365Z,73.26
2023-10-27T11:52:52.977Z,73.10
2023-10-27T11:55:21.088Z,73.06
2023-10-27T11:57:49.597Z,74.46
2023-10-27T12:00:17.183Z,73.03
2023-10-27T12:02:45.076Z,71.93
2023-10-27T12:05:12.646Z,72.21
2023-10-27T12:07:40.274Z,72.84
2023-10-27T12:10:12.252Z,71.94
2023-10-27T12:12:40.097Z,71.70
2023-10-27T12:15:08.832Z,72.41
2023-10-27T12:17:36.411Z,72.87
2023-10-27T12:20:07.984Z,74.23
2023-10-27T12:22:36.124Z,73.15
2023-10-27T12:25:07.170Z,72.66
2023-10-27T12:27:34.655Z,71.04
2023-10-27T12:30:03.032Z,74.37
2023-10-27T12:32:34.181Z,74.25
2023-10-27T12:35:02.270Z,75.48
2023-10-27T12:37:32.231Z,75.10
2023-10-27T12:39:59.951Z,74.66
2023-10-27T12:42:29.711Z,75.39
2023-10-27T12:44:58.482Z,73.11
2023-10-27T12:47:29.838Z,73.73
2023-10-27T12:49:59.831Z,73.67
2023-10-27T12:52:28.700Z,72.71
2023-10-27T12:54:59.228Z,72.40
2023-10-27T12:57:27.301Z,72.36
2023-10-27T12:59:55.974Z,73.67
2023-10-27T13:02:25.010Z,72.70
2023-10-27T13:04:53.372Z,73.86
2023-10-27T13:07:21.165Z,73.14
2023-10-27T13:09:48.680Z,71.49
2023-10-27T13:12:17.044Z,71.79
2023-10-27T13:14:44.853Z,72.53
2023-10-27T13:17:13.074Z,72.10
2023-10-27T13:19:41.238Z,71.26
2023-10-27T13:22:09.302Z,70.42
2023-10-27T13:24:39.621Z,69.42
2023-10-27T13:27:09.911Z,71.17
2023-10-27T13:29:38.561Z,71.74
2023-10-27T13:32:06.464Z,70.42
2023-10-27T13:34:34.896Z,71.88
2023-10-27T13:37:03.372Z,71.33
2023-10-27T13:39:32.801Z,70.41
2023-10-27T13:42:03.066Z,70.72
2023-10-27T13:44:31.173Z,71.00
2023-10-27T13:47:00.921Z,70.77
2023-10-27T13:49:28.898Z,70.37
2023-10-27T13:51:56.759Z,71.40
2023-10-27T13:54:24.820Z,70.85
2023-10-27T13:56:52.766Z,71.10
2023-10-27T13:59:20.254Z,72.49
2023-10-27T14:01:49.610Z,72.08
2023-10-27T14:04:18.158Z,71.89
2023-10-27T14:06:48.962Z,72.11
2023-10-27T14:09:16.973Z,72.13
2023-10-27T14:11:46.391Z,70.51
2023-10-27T14:14:16.934Z,71.89
2023-10-27T14:16:45.197Z,71.02
2023-10-27T14:19:49.700Z,71.55
2023-10-27T14:22:18.382Z,72.12
2023-10-27T14:24:47.599Z,72.22
2023-10-27T14:27:16.686Z,71.03
2023-10-27T14:29:44.761Z,72.25
2023-10-27T14:32:12.439Z,72.26
2023-10-27T14:34:41.701Z,71.52
2023-10-27T14:37:09.681Z,72.03
2023-10-27T14:39:42.329Z,72.06
2023-10-27T14:42:10.287Z,71.85
2023-10-27T14:44:38.077Z,71.61
2023-10-27T14:47:05.784Z,70.42
2023-10-27T14:49:33.853Z,71.16
2023-10-27T14:52:01.463Z,70.91
2023-10-27T14:54:37.322Z,70.17
2023-10-27T14:57:05.409Z,71.05
2023-10-27T14:59:33.323Z,70.13
2023-10-27T15:02:01.382Z,69.82
2023-10-27T15:04:29.416Z,69.23
2023-10-27T15:06:58.081Z,70.62
2023-10-27T15:09:25.616Z,69.95
2023-10-27T15:11:53.402Z,71.62
2023-10-27T15:14:20.944Z,71.53
2023-10-27T15:16:48.840Z,71.33
2023-10-27T15:19:16.999Z,70.63
2023-10-27T15:21:45.239Z,70.89
2023-10-27T15:24:12.971Z,70.00
2023-10-27T15:26:40.913Z,70.31
2023-10-27T15:29:08.794Z,70.68
2023-10-27T15:31:38.617Z,69.74
2023-10-27T15:34:06.940Z,69.72
2023-10-27T15:36:34.646Z,69.99
2023-10-27T15:39:05.445Z,68.71
2023-10-27T15:41:40.017Z,68.43
2023-10-27T15:44:08.192Z,68.58
2023-10-27T15:46:36.668Z,68.65
2023-10-27T15:49:04.462Z,68.05
2023-10-27T15:51:31.943Z,68.76
2023-10-27T15:54:01.286Z,68.47
2023-10-27T15:56:30.659Z,68.39
2023-10-27T15:59:03.399Z,67.91
2023-10-27T16:01:31.709Z,68.97
2023-10-27T16:03:59.893Z,67.74
2023-10-27T16:06:27.921Z,68.53
2023-10-27T16:08:56.753Z,67.62
2023-10-27T16:11:25.394Z,67.99
2023-10-27T16:13:52.937Z,68.03
2023-10-27T16:16:20.749Z,67.70
2023-10-27T16:18:49.227Z,68.59
2023-10-27T16:21:17.309Z,70.19
2023-10-27T16:23:45.044Z,69.32
2023-10-27T16:26:15.290Z,68.80
2023-10-27T16:28:46.018Z,68.42
2023-10-27T16:31:13.957Z,68.63
2023-10-27T16:33:43.240Z,67.95
2023-10-27T16:36:11.577Z,68.53
2023-10-27T16:38:40.939Z,68.51
2023-10-27T16:41:09.763Z,68.50
2023-10-27T16:43:45.698Z,69.15
2023-10-27T16:46:14.233Z,68.35
2023-10-27T16:48:42.127Z,67.29
2023-10-27T16:51:14.604Z,68.42
2023-10-27T16:53:43.245Z,67.56
2023-10-27T16:56:14.112Z,67.84
2023-10-27T16:58:42.434Z,67.20
2023-10-27T17:01:10.474Z,66.85
2023-10-27T17:04:04.860Z,66.39
2023-10-27T17:06:38.774Z,67.04
2023-10-27T17:09:31.872Z,66.52
2023-10-27T17:12:01.546Z,66.73
2023-10-27T17:14:29.931Z,66.26
2023-10-27T17:16:57.676Z,66.45
2023-10-27T17:19:25.882Z,65.54
2023-10-27T17:21:58.550Z,65.47
2023-10-27T17:24:26.973Z,65.44
2023-10-27T17:26:56.030Z,65.07
2023-10-27T17:29:24.026Z,65.86
2023-10-27T17:31:52.235Z,66.43
2023-10-27T17:34:20.417Z,65.76
2023-10-27T17:36:51.393Z,65.20
2023-10-27T17:39:19.265Z,64.83
2023-10-27T17:41:47.760Z,64.70
2023-10-27T17:44:18.742Z,65.08
2023-10-27T17:46:47.235Z,65.06
2023-10-27T17:49:18.417Z,64.88
2023-10-27T17:51:46.309Z,64.75
2023-10-27T17:54:14.472Z,64.63
2023-10-27T17:56:42.490Z,64.35
2023-10-27T17:59:10.524Z,64.74
2023-10-27T18:01:39.097Z,64.69
2023-10-27T18:04:08.067Z,64.61
2023-10-27T18:06:38.368Z,64.10
2023-10-27T18:09:06.451Z,63.34
2023-10-27T18:11:36.339Z,64.43
2023-10-27T18:14:05.396Z,62.74
2023-10-27T18:16:33.616Z,62.69
2023-10-27T18:19:01.747Z,64.61
2023-10-27T18:21:31.334Z,64.60
2023-10-27T18:23:59.859Z,64.34
2023-10-27T18:26:27.741Z,62.92
2023-10-27T18:28:55.355Z,62.71
2023-10-27T18:31:24.028Z,62.66
2023-10-27T18:33:52.321Z,63.47
2023-10-27T18:36:22.816Z,63.10
2023-10-27T18:38:50.546Z,63.11
2023-10-27T18:41:18.828Z,63.15
2023-10-27T18:43:49.388Z,64.40
2023-10-27T18:46:19.144Z,62.14
2023-10-27T18:48:50.277Z,61.89
2023-10-27T18:51:19.172Z,61.55
2023-10-27T18:53:49.949Z,61.24
2023-10-27T18:56:20.938Z,62.20
2023-10-27T18:58:49.041Z,61.11
2023-10-27T19:01:17.745Z,61.37
2023-10-27T19:03:49.681Z,60.59
2023-10-27T19:06:19.488Z,61.01
2023-10-27T19:08:47.632Z,60.49
2023-10-27T19:11:16.169Z,59.94
2023-10-27T19:13:44.296Z,59.50
2023-10-27T19:16:15.429Z,59.36
2023-10-27T19:18:47.384Z,58.68
2023-10-27T19:21:18.412Z,59.01
2023-10-27T19:23:51.504Z,58.37
2023-10-27T19:26:21.602Z,58.89
2023-10-27T19:28:51.061Z,58.43
2023-10-27T19:31:20.934Z,58.09
2023-10-27T19:33:49.557Z,58.08
2023-10-27T19:36:20.561Z,58.00
2023-10-27T19:38:50.073Z,57.81
2023-10-27T19:41:17.877Z,58.20
2023-10-27T19:46:08.987Z,56.14
2023-10-27T19:48:38.902Z,56.14
2023-10-27T19:51:06.885Z,56.54
2023-10-27T19:53:37.430Z,57.50
2023-10-27T19:56:10.887Z,56.64
2023-10-27T19:58:38.945Z,55.67
2023-10-27T20:01:18.838Z,56.10
2023-10-27T20:03:49.151Z,56.39
2023-10-27T20:06:17.102Z,56.84
2023-10-27T20:08:44.948Z,56.73
2023-10-27T20:11:14.538Z,56.42
2023-10-27T20:13:45.217Z,56.24
2023-10-27T20:16:14.967Z,56.46
2023-10-27T20:18:43.801Z,56.14
2023-10-27T20:21:12.838Z,55.91
2023-10-27T20:23:43.881Z,57.01
2023-10-27T20:26:12.098Z,56.43
2023-10-27T20:28:41.216Z,55.99
2023-10-27T20:31:09.206Z,56.21
2023-10-27T20:33:37.183Z,55.90
2023-10-27T20:36:06.702Z,55.67
2023-10-27T20:38:35.176Z,55.33
2023-10-27T20:41:03.176Z,55.13
2023-10-27T20:43:31.276Z,55.13
2023-10-27T20:46:04.297Z,54.80
2023-10-27T20:48:32.457Z,54.98
2023-10-27T20:51:04.546Z,55.19
2023-10-27T20:53:32.638Z,55.12
2023-10-27T20:56:00.726Z,54.99
2023-10-27T20:58:28.879Z,55.35
2023-10-27T21:00:56.691Z,55.17
2023-10-27T21:03:24.679Z,54.78
2023-10-27T21:05:52.957Z,55.09
2023-10-27T21:08:20.857Z,55.36
2023-10-27T21:10:52.241Z,55.82
2023-10-27T21:13:20.583Z,55.43
2023-10-27T21:15:48.154Z,55.54
2023-10-27T21:18:16.140Z,55.87
2023-10-27T21:20:44.263Z,55.86
2023-10-27T21:23:11.869Z,55.93
2023-10-27T21:25:40.692Z,55.76
2023-10-27T21:28:09.626Z,54.92
2023-10-27T21:30:37.494Z,55.24
2023-10-27T21:33:05.734Z,55.70
2023-10-27T21:35:34.032Z,55.74
2023-10-27T21:38:01.878Z,56.09
2023-10-27T21:40:30.202Z,56.09
2023-10-27T21:42:58.898Z,55.67
2023-10-27T21:45:27.213Z,55.82
2023-10-27T21:47:55.289Z,56.32
2023-10-27T21:50:23.625Z,56.29
2023-10-27T21:52:51.530Z,56.58
2023-10-27T21:55:19.859Z,56.65
2023-10-27T21:57:48.298Z,56.18
2023-10-27T22:00:32.599Z,56.65
2023-10-27T22:03:01.616Z,56.61
2023-10-27T22:05:29.441Z,56.90
2023-10-27T22:07:57.458Z,56.74
2023-10-27T22:10:25.574Z,57.25
2023-10-27T22:12:53.388Z,57.21
2023-10-27T22:15:24.603Z,57.70
2023-10-27T22:17:53.023Z,57.48
2023-10-27T22:20:20.677Z,58.21
2023-10-27T22:22:49.930Z,58.08
2023-10-27T22:25:19.388Z,58.59
2023-10-27T22:27:47.074Z,58.54
2023-10-27T22:30:15.120Z,59.30
2023-10-27T22:32:43.173Z,58.72
2023-10-27T22:35:11.639Z,58.08
2023-10-27T22:37:42.160Z,57.64
2023-10-27T22:40:11.168Z,57.68
2023-10-27T22:42:39.074Z,57.83
2023-10-27T22:45:07.316Z,56.96
2023-10-27T22:47:35.393Z,56.81
2023-10-27T22:50:05.657Z,56.80
2023-10-27T22:52:33.233Z,56.46
2023-10-27T22:55:01.527Z,56.07
2023-10-27T22:57:31.280Z,56.29
2023-10-27T22:59:59.340Z,56.43
2023-10-27T23:02:27.845Z,57.12
2023-10-27T23:04:56.312Z,56.47
2023-10-27T23:07:25.406Z,56.71
2023-10-27T23:09:53.496Z,56.05
2023-10-27T23:12:21.516Z,55.95
2023-10-27T23:14:49.151Z,55.70
2023-10-27T23:17:17.640Z,56.46
2023-10-27T23:19:45.673Z,55.66
2023-10-27T23:22:13.919Z,55.56
2023-10-27T23:24:43.437Z,55.42
2023-10-27T23:27:11.334Z,55.09
2023-10-27T23:29:38.790Z,55.66
2023-10-27T23:32:07.196Z,55.37
2023-10-27T23:34:35.304Z,54.80
2023-10-27T23:37:03.858Z,54.91
2023-10-27T23:39:32.546Z,54.98
2023-10-27T23:42:00.646Z,54.04
2023-10-27T23:44:30.736Z,54.96
2023-10-27T23:46:59.015Z,54.89
2023-10-27T23:49:26.777Z,54.94
2023-10-27T23:51:54.274Z,54.47
2023-10-27T23:54:22.877Z,54.64
2023-10-27T23:56:50.737Z,55.07
2023-10-27T23:59:18.595Z,54.49
